Nellis Air Force Base
KLSV : rendu visible

Aérodrome :











RETROUVEZ-NOUS SUR...

 
LOGIN :

S'inscrire | Disclaimer

   EN    FR    IT 

 









Légende :    VFR   VFR Marginal   IFR   IFR Intensif   IFR Très Intensif
Visi : 
Plafond : 
>= 8 km
>= 3000ft
5 à 8 km
1000 à 3000 ft
1500m à 5 km
500 à 1000 ft
800 à 1500m
200 à 500 ft
< 800m
< 200 ft
Symboles :   Orages  Brouillard  Fortes neiges  Fortes précipitations  Vent > 20 kt






- Altitude de l'aérodrome : 1870 ft


KLSV - Nellis Air Force Base

DERNIER METAR :
  • 171758Z AUTO 04003KT 10SM CLR 10/M01 A3024 RMK AO2 SLP238 T01041007 10104 20060 52047 $

METARs EXPIRÉS :
  • 171658Z AUTO 35003KT 10SM CLR 08/M01 A3019 RMK AO2 SLP221 T00841006 $
  • 171558Z AUTO 00000KT 10SM CLR 06/M01 A3014 RMK AO2 SLP205 T00611009 $

TAF TAF KLSV
Valide du 17 à 15h jusqu'au 18 à 21h UTC


171500Z 1715/1821 21006KT 9999 FEW250 QNH3010INS
BECMG 1717/1718 03005KT 9999 SCT250 QNH3019INS
BECMG 1804/1805 34006KT 9999 SKC QNH3028INS
BECMG 1817/1818 03005KT 9999 SCT200 QNH3030INS TX13/1721Z TN02/1812Z



MET'MAP, la Météo Aéronautique d'un coup d'oeil ! - Copyright ORBIFLY Décembre 2007 - Disclaimer

ORBIFLY MET'MAP TEAM :

Programmation & Développement : Alexandra Zaïnal
Sur une idée originale de : Baudouin d'Aumeries
Assistance à la programmation : Marc-Olivier Méhu
Soutien technique & logistique : Manuel Goepfert

Contact : metmap@orbifly.com




SOURCES & CREDITS :

   NOAA       Earth
Advisory